createdAt,value
2022-10-02T00:01:55.540Z,26.60
2022-10-02T00:04:30.891Z,33.30
2022-10-02T00:07:05.151Z,40.42
2022-10-02T00:09:37.576Z,19.85
2022-10-02T00:12:08.812Z,25.23
2022-10-02T00:14:40.924Z,25.02
2022-10-02T00:17:16.700Z,25.35
2022-10-02T00:19:46.329Z,28.83
2022-10-02T00:22:38.491Z,21.80
2022-10-02T00:25:15.062Z,33.20
2022-10-02T00:27:54.870Z,26.17
2022-10-02T00:30:23.151Z,21.98
2022-10-02T00:33:05.009Z,28.15
2022-10-02T00:35:53.418Z,17.05
2022-10-02T00:38:31.759Z,23.58
2022-10-02T00:41:21.773Z,19.33
2022-10-02T00:44:04.423Z,22.65
2022-10-02T00:46:42.637Z,22.90
2022-10-02T00:49:26.082Z,25.77
2022-10-02T00:52:07.887Z,22.10
2022-10-02T00:55:04.915Z,20.20
2022-10-02T00:57:48.302Z,13.45
2022-10-02T01:00:18.416Z,16.73
2022-10-02T01:03:06.551Z,15.57
2022-10-02T01:05:35.657Z,16.45
2022-10-02T01:08:06.057Z,18.10
2022-10-02T01:10:36.076Z,15.73
2022-10-02T01:13:04.860Z,21.98
2022-10-02T01:15:35.850Z,19.33
2022-10-02T01:18:05.096Z,21.75
2022-10-02T01:20:39.459Z,19.13
2022-10-02T01:23:17.272Z,17.70
2022-10-02T01:25:47.005Z,22.17
2022-10-02T01:28:15.403Z,17.10
2022-10-02T01:30:46.711Z,18.75
2022-10-02T01:33:15.937Z,20.42
2022-10-02T01:35:45.061Z,18.77
2022-10-02T01:38:16.969Z,23.73
2022-10-02T01:40:46.654Z,18.45
2022-10-02T01:43:18.330Z,20.13
2022-10-02T01:45:58.034Z,28.83
2022-10-02T01:48:42.888Z,24.10
2022-10-02T01:51:27.403Z,21.88
2022-10-02T01:54:06.227Z,22.05
2022-10-02T01:56:43.146Z,25.10
2022-10-02T01:59:21.492Z,22.35
2022-10-02T02:01:59.886Z,26.35
2022-10-02T02:04:33.407Z,18.38
2022-10-02T02:07:09.160Z,25.20
2022-10-02T02:09:41.316Z,19.27
2022-10-02T02:12:16.023Z,17.40
2022-10-02T02:14:48.643Z,24.95
2022-10-02T02:17:22.635Z,18.90
2022-10-02T02:19:57.433Z,20.25
2022-10-02T02:22:28.718Z,15.43
2022-10-02T02:25:01.282Z,17.50
2022-10-02T02:27:38.883Z,14.27
2022-10-02T02:30:12.012Z,19.05
2022-10-02T02:32:44.618Z,16.60
2022-10-02T02:35:17.374Z,17.10
2022-10-02T02:37:49.353Z,17.25
2022-10-02T02:40:21.184Z,22.40
2022-10-02T02:42:58.054Z,21.05
2022-10-02T02:45:30.520Z,21.85
2022-10-02T02:48:03.844Z,28.02
2022-10-02T02:50:35.315Z,23.48
2022-10-02T02:53:10.345Z,23.75
2022-10-02T02:55:45.114Z,24.58
2022-10-02T02:58:18.795Z,28.42
2022-10-02T03:00:47.198Z,28.80
2022-10-02T03:03:15.677Z,23.33
2022-10-02T03:05:48.380Z,25.17
2022-10-02T03:08:24.172Z,22.90
2022-10-02T03:11:05.416Z,24.33
2022-10-02T03:13:47.678Z,27.80
2022-10-02T03:16:29.856Z,22.58
2022-10-02T03:19:10.344Z,29.08
2022-10-02T03:21:46.156Z,23.27
2022-10-02T03:24:21.696Z,30.02
2022-10-02T03:26:56.700Z,26.33
2022-10-02T03:29:31.156Z,29.00
2022-10-02T03:32:00.811Z,29.88
2022-10-02T03:34:29.307Z,29.83
2022-10-02T03:36:57.880Z,24.95
2022-10-02T03:39:26.461Z,24.65
2022-10-02T03:41:55.397Z,35.97
2022-10-02T03:44:24.985Z,26.60
2022-10-02T03:46:53.877Z,25.92
2022-10-02T03:49:22.337Z,23.85
2022-10-02T03:51:50.567Z,25.52
2022-10-02T03:54:20.936Z,25.67
2022-10-02T03:56:56.051Z,28.30
2022-10-02T03:59:42.319Z,18.15
2022-10-02T04:02:18.335Z,24.23
2022-10-02T04:04:50.966Z,27.45
2022-10-02T04:07:23.931Z,23.90
2022-10-02T04:10:00.657Z,26.98
2022-10-02T04:12:34.207Z,22.23
2022-10-02T04:15:08.308Z,27.23
2022-10-02T04:17:44.102Z,28.27
2022-10-02T04:20:17.287Z,19.88
2022-10-02T04:22:51.150Z,31.08
2022-10-02T04:25:21.492Z,25.27
2022-10-02T04:27:53.602Z,17.52
2022-10-02T04:30:23.795Z,22.20
2022-10-02T04:32:52.131Z,20.92
2022-10-02T04:35:27.068Z,32.83
2022-10-02T04:38:22.788Z,20.92
2022-10-02T04:41:05.650Z,20.92
2022-10-02T04:43:47.621Z,28.02
2022-10-02T04:46:33.656Z,19.50
2022-10-02T04:49:19.985Z,21.55
2022-10-02T04:52:01.492Z,26.25
2022-10-02T04:54:48.461Z,18.08
2022-10-02T04:57:34.973Z,27.63
2022-10-02T05:00:09.343Z,20.50
2022-10-02T05:03:01.787Z,20.95
2022-10-02T05:05:41.643Z,24.48
2022-10-02T05:08:34.717Z,22.42
2022-10-02T05:11:27.393Z,17.25
2022-10-02T05:14:20.065Z,18.52
2022-10-02T05:16:58.820Z,18.40
2022-10-02T05:19:49.530Z,14.38
2022-10-02T05:22:42.331Z,17.88
2022-10-02T05:25:42.354Z,22.85
2022-10-02T05:28:26.025Z,19.85
2022-10-02T05:31:04.377Z,23.20
2022-10-02T05:33:51.065Z,22.10
2022-10-02T05:36:45.199Z,24.13
2022-10-02T05:39:22.087Z,22.95
2022-10-02T05:41:57.125Z,19.52
2022-10-02T05:44:29.494Z,22.08
2022-10-02T05:47:02.640Z,18.17
2022-10-02T05:49:35.912Z,16.30
2022-10-02T05:52:08.992Z,20.45
2022-10-02T05:54:44.392Z,17.88
2022-10-02T05:57:20.594Z,23.63
2022-10-02T06:00:01.488Z,23.00
2022-10-02T06:02:39.571Z,16.20
2022-10-02T06:05:16.006Z,18.27
2022-10-02T06:07:49.937Z,19.45
2022-10-02T06:10:20.452Z,17.23
2022-10-02T06:12:55.404Z,13.15
2022-10-02T06:15:27.364Z,13.40
2022-10-02T06:18:00.474Z,9.18
2022-10-02T06:20:35.038Z,12.63
2022-10-02T06:23:09.099Z,12.75
2022-10-02T06:25:42.715Z,9.65
2022-10-02T06:28:15.924Z,11.77
2022-10-02T06:30:52.063Z,15.70
2022-10-02T06:33:23.803Z,13.57
2022-10-02T06:36:31.376Z,15.90
2022-10-02T06:39:16.748Z,12.60
2022-10-02T06:41:54.205Z,16.80
2022-10-02T06:44:27.824Z,14.27
2022-10-02T06:47:09.621Z,9.82
2022-10-02T06:49:52.967Z,12.65
2022-10-02T06:52:37.260Z,16.05
2022-10-02T06:55:25.296Z,12.00
2022-10-02T06:58:09.233Z,12.05
2022-10-02T07:00:47.883Z,12.82
2022-10-02T07:03:35.452Z,13.75
2022-10-02T07:06:15.107Z,13.50
2022-10-02T07:09:11.720Z,14.82
2022-10-02T07:11:47.395Z,13.18
2022-10-02T07:14:46.145Z,14.55
2022-10-02T07:17:35.599Z,13.38
2022-10-02T07:20:35.067Z,12.25
2022-10-02T07:23:27.548Z,13.63
2022-10-02T07:26:11.364Z,11.45
2022-10-02T07:28:45.389Z,13.80
2022-10-02T07:31:22.621Z,14.38
2022-10-02T07:34:05.097Z,12.18
2022-10-02T07:36:45.033Z,13.52
2022-10-02T07:39:22.549Z,13.57
2022-10-02T07:42:28.519Z,10.88
2022-10-02T07:45:22.878Z,13.00
2022-10-02T07:48:09.257Z,15.35
2022-10-02T07:50:46.041Z,15.77
2022-10-02T07:53:22.050Z,11.77
2022-10-02T07:55:54.363Z,16.10
2022-10-02T07:58:31.679Z,11.15
2022-10-02T08:01:05.916Z,12.70
2022-10-02T08:03:38.087Z,10.38
2022-10-02T08:06:07.425Z,10.80
2022-10-02T08:08:42.905Z,15.52
2022-10-02T08:11:15.646Z,11.48
2022-10-02T08:13:48.764Z,13.98
2022-10-02T08:16:23.446Z,13.95
2022-10-02T08:18:57.329Z,12.45
2022-10-02T08:21:27.201Z,16.43
2022-10-02T08:24:00.641Z,14.70
2022-10-02T08:26:35.829Z,14.93
2022-10-02T08:29:09.474Z,14.18
2022-10-02T08:31:39.350Z,12.30
2022-10-02T08:34:17.596Z,13.65
2022-10-02T08:37:11.470Z,12.07
2022-10-02T08:40:02.586Z,10.90
2022-10-02T08:43:17.323Z,13.85
2022-10-02T08:46:16.684Z,13.25
2022-10-02T08:49:29.615Z,12.88
2022-10-02T08:52:23.168Z,10.88
2022-10-02T08:55:22.035Z,12.93
2022-10-02T08:58:28.350Z,10.07
2022-10-02T09:01:08.308Z,15.30
2022-10-02T09:04:17.819Z,12.73
2022-10-02T09:07:28.379Z,12.55
2022-10-02T09:10:35.236Z,11.23
2022-10-02T09:13:42.397Z,12.45
2022-10-02T09:16:12.655Z,14.52
2022-10-02T09:18:56.362Z,12.30
2022-10-02T09:21:46.345Z,15.68
2022-10-02T09:24:46.684Z,17.25
2022-10-02T09:27:41.871Z,17.52
2022-10-02T09:30:28.065Z,14.70
2022-10-02T09:33:41.008Z,18.40
2022-10-02T09:36:35.824Z,16.63
2022-10-02T09:39:45.623Z,22.20
2022-10-02T09:42:41.664Z,16.60
2022-10-02T09:45:45.120Z,20.48
2022-10-02T09:49:05.068Z,18.17
2022-10-02T09:52:30.224Z,15.95
2022-10-02T09:55:37.399Z,15.23
2022-10-02T09:58:34.587Z,13.43
2022-10-02T10:01:17.777Z,19.73
2022-10-02T10:04:12.717Z,21.02
2022-10-02T10:07:19.199Z,17.83
2022-10-02T10:10:18.785Z,19.48
2022-10-02T10:13:22.271Z,16.08
2022-10-02T10:16:22.157Z,14.27
2022-10-02T10:19:24.734Z,14.98
2022-10-02T10:22:20.411Z,23.02
2022-10-02T10:25:43.099Z,18.23
2022-10-02T10:28:42.796Z,14.23
2022-10-02T10:31:56.746Z,15.57
2022-10-02T10:34:54.875Z,16.83
2022-10-02T10:38:10.079Z,17.55
2022-10-02T10:40:51.654Z,17.55
2022-10-02T10:43:59.958Z,12.20
2022-10-02T10:46:45.550Z,18.67
2022-10-02T10:49:43.735Z,11.30
2022-10-02T10:52:21.602Z,19.00
2022-10-02T10:55:15.029Z,12.88
2022-10-02T10:58:00.044Z,19.00
2022-10-02T11:00:41.192Z,16.23
2022-10-02T11:03:39.251Z,15.43
2022-10-02T11:06:45.967Z,13.50
2022-10-02T11:09:47.805Z,20.33
2022-10-02T11:12:46.419Z,15.07
2022-10-02T11:15:41.215Z,15.73
2022-10-02T11:18:42.289Z,17.67
2022-10-02T11:21:25.956Z,14.15
2022-10-02T11:24:08.232Z,12.48
2022-10-02T11:26:59.296Z,15.15
2022-10-02T11:30:00.045Z,14.35
2022-10-02T11:33:07.185Z,11.98
2022-10-02T11:35:52.986Z,15.77
2022-10-02T11:38:50.003Z,13.48
2022-10-02T11:41:45.301Z,13.25
2022-10-02T11:44:24.730Z,14.38
2022-10-02T11:47:28.726Z,14.52
2022-10-02T11:50:31.732Z,15.43
2022-10-02T11:53:23.453Z,19.60
2022-10-02T11:56:04.722Z,9.93
2022-10-02T11:58:46.152Z,10.15
2022-10-02T12:01:24.798Z,10.52
2022-10-02T12:04:04.102Z,13.85
2022-10-02T12:06:52.381Z,18.15
2022-10-02T12:09:31.160Z,13.65
2022-10-02T12:12:13.204Z,16.48
2022-10-02T12:14:46.031Z,13.27
2022-10-02T12:17:53.247Z,14.45
2022-10-02T12:20:47.074Z,10.50
2022-10-02T12:23:45.854Z,18.33
2022-10-02T12:26:48.778Z,13.25
2022-10-02T12:29:26.535Z,10.40
2022-10-02T12:32:00.296Z,15.57
2022-10-02T12:34:38.308Z,13.32
2022-10-02T12:37:15.709Z,12.70
2022-10-02T12:39:57.401Z,13.60
2022-10-02T12:42:54.787Z,14.27
2022-10-02T12:45:57.470Z,14.13
2022-10-02T12:48:45.875Z,13.75
2022-10-02T12:51:35.398Z,13.55
2022-10-02T12:54:33.498Z,14.30
2022-10-02T12:57:41.227Z,13.77
2022-10-02T13:00:15.508Z,14.13
2022-10-02T13:03:13.222Z,12.20
2022-10-02T13:06:10.824Z,13.45
2022-10-02T13:09:04.240Z,14.23
2022-10-02T13:11:43.915Z,15.98
2022-10-02T13:14:41.965Z,13.60
2022-10-02T13:17:26.176Z,10.77
2022-10-02T13:20:11.775Z,13.57
2022-10-02T13:22:48.212Z,12.68
2022-10-02T13:25:44.187Z,10.63
2022-10-02T13:28:42.804Z,12.90
2022-10-02T13:31:19.275Z,11.30
2022-10-02T13:34:02.681Z,13.98
2022-10-02T13:36:43.785Z,15.45
2022-10-02T13:39:26.351Z,14.55
2022-10-02T13:42:07.135Z,13.30
2022-10-02T13:44:43.575Z,12.65
2022-10-02T13:47:34.889Z,11.57
2022-10-02T13:50:24.916Z,13.18
2022-10-02T13:53:06.821Z,14.77
2022-10-02T13:55:41.053Z,11.57
2022-10-02T13:58:35.639Z,11.98
2022-10-02T14:01:14.475Z,11.85
2022-10-02T14:04:23.451Z,12.48
2022-10-02T14:06:56.506Z,11.55
2022-10-02T14:09:36.187Z,15.80
2022-10-02T14:12:28.729Z,13.25
2022-10-02T14:15:10.762Z,15.55
2022-10-02T14:17:51.790Z,19.23
2022-10-02T14:20:34.463Z,11.25
2022-10-02T14:23:30.664Z,11.93
2022-10-02T14:26:09.342Z,12.70
2022-10-02T14:29:04.938Z,12.05
2022-10-02T14:32:08.638Z,15.07
2022-10-02T14:35:11.773Z,15.23
2022-10-02T14:38:13.645Z,10.75
2022-10-02T14:40:51.934Z,16.00
2022-10-02T14:43:51.640Z,10.00
2022-10-02T14:46:26.249Z,11.48
2022-10-02T14:49:09.504Z,10.75
2022-10-02T14:51:53.247Z,10.25
2022-10-02T14:54:31.525Z,14.40
2022-10-02T14:57:19.759Z,13.75
2022-10-02T15:00:04.623Z,17.30
2022-10-02T15:03:11.041Z,8.75
2022-10-02T15:06:05.654Z,13.10
2022-10-02T15:08:38.622Z,16.05
2022-10-02T15:11:22.311Z,14.07
2022-10-02T15:13:56.731Z,11.93
2022-10-02T15:16:51.292Z,10.02
2022-10-02T15:19:26.203Z,12.68
2022-10-02T15:22:00.794Z,12.70
2022-10-02T15:24:32.489Z,12.57
2022-10-02T15:27:22.757Z,14.95
2022-10-02T15:30:15.338Z,13.43
2022-10-02T15:33:12.482Z,12.07
2022-10-02T15:35:55.236Z,11.32
2022-10-02T15:38:50.580Z,14.63
2022-10-02T15:41:41.624Z,9.85
2022-10-02T15:44:25.644Z,14.23
2022-10-02T15:47:03.541Z,8.68
2022-10-02T15:49:45.329Z,12.82
2022-10-02T15:52:26.584Z,8.93
2022-10-02T15:55:06.439Z,11.07
2022-10-02T15:57:50.631Z,12.95
2022-10-02T16:00:22.001Z,10.77
2022-10-02T16:02:58.889Z,11.13
2022-10-02T16:05:48.815Z,12.07
2022-10-02T16:08:43.628Z,8.85
2022-10-02T16:11:28.984Z,8.98
2022-10-02T16:14:07.928Z,9.05
2022-10-02T16:17:09.415Z,13.80
2022-10-02T16:19:52.321Z,14.25
2022-10-02T16:22:38.528Z,9.80
2022-10-02T16:25:33.645Z,11.30
2022-10-02T16:28:13.249Z,10.02
2022-10-02T16:31:11.010Z,13.35
2022-10-02T16:33:51.060Z,10.93
2022-10-02T16:36:32.059Z,12.52
2022-10-02T16:39:15.408Z,9.57
2022-10-02T16:41:59.033Z,13.93
2022-10-02T16:44:55.670Z,15.32
2022-10-02T16:47:29.959Z,14.25
2022-10-02T16:50:05.947Z,15.32
2022-10-02T16:52:42.612Z,16.83
2022-10-02T16:55:24.007Z,15.18
2022-10-02T16:58:18.567Z,13.77
2022-10-02T17:00:55.682Z,10.88
2022-10-02T17:03:30.529Z,12.88
2022-10-02T17:06:07.643Z,14.55
2022-10-02T17:08:42.328Z,13.02
2022-10-02T17:11:20.234Z,13.80
2022-10-02T17:14:06.244Z,14.75
2022-10-02T17:16:39.986Z,16.45
2022-10-02T17:19:21.208Z,20.43
2022-10-02T17:21:54.883Z,13.05
2022-10-02T17:24:36.307Z,9.85
2022-10-02T17:27:17.855Z,12.68
2022-10-02T17:29:58.269Z,11.38
2022-10-02T17:32:39.287Z,15.40
2022-10-02T17:35:16.942Z,13.18
2022-10-02T17:38:23.061Z,14.32
2022-10-02T17:41:00.314Z,14.32
2022-10-02T17:43:35.586Z,12.35
2022-10-02T17:46:24.746Z,15.30
2022-10-02T17:48:59.436Z,13.48
2022-10-02T17:51:52.243Z,17.23
2022-10-02T17:55:04.683Z,11.35
2022-10-02T17:57:50.797Z,13.45
2022-10-02T18:00:22.986Z,13.93
2022-10-02T18:03:21.895Z,11.40
2022-10-02T18:06:02.444Z,12.93
2022-10-02T18:08:59.334Z,18.33
2022-10-02T18:12:03.673Z,13.50
2022-10-02T18:14:57.449Z,15.75
2022-10-02T18:17:40.002Z,14.27
2022-10-02T18:20:18.186Z,14.77
2022-10-02T18:22:58.426Z,13.65
2022-10-02T18:25:36.261Z,12.98
2022-10-02T18:28:35.088Z,16.73
2022-10-02T18:31:33.234Z,16.55
2022-10-02T18:34:26.659Z,18.47
2022-10-02T18:37:09.713Z,14.98
2022-10-02T18:39:44.842Z,12.43
2022-10-02T18:42:32.054Z,18.88
2022-10-02T18:45:06.182Z,21.52
2022-10-02T18:47:47.103Z,30.83
2022-10-02T18:50:33.664Z,19.67
2022-10-02T18:53:16.354Z,25.27
2022-10-02T18:56:02.920Z,21.67
2022-10-02T18:58:44.488Z,25.33
2022-10-02T19:01:22.468Z,22.47
2022-10-02T19:04:07.626Z,26.65
2022-10-02T19:06:45.136Z,29.77
2022-10-02T19:09:20.911Z,25.73
2022-10-02T19:11:56.760Z,20.30
2022-10-02T19:14:35.144Z,25.07
2022-10-02T19:17:06.069Z,26.63
2022-10-02T19:19:36.958Z,23.42
2022-10-02T19:22:15.545Z,25.53
2022-10-02T19:24:47.092Z,23.63
2022-10-02T19:27:24.137Z,25.03
2022-10-02T19:29:55.945Z,27.43
2022-10-02T19:32:29.019Z,29.77
2022-10-02T19:35:05.635Z,33.77
2022-10-02T19:37:35.968Z,35.53
2022-10-02T19:40:07.206Z,29.10
2022-10-02T19:42:48.084Z,27.83
2022-10-02T19:45:26.679Z,29.87
2022-10-02T19:47:57.738Z,29.23
2022-10-02T19:50:37.519Z,25.50
2022-10-02T19:53:08.084Z,28.33
2022-10-02T19:55:40.486Z,26.10
2022-10-02T19:58:16.715Z,26.17
2022-10-02T20:00:44.969Z,28.63
2022-10-02T20:03:18.104Z,29.00
2022-10-02T20:05:49.296Z,26.33
2022-10-02T20:08:20.571Z,27.07
2022-10-02T20:10:58.735Z,22.60
2022-10-02T20:13:34.928Z,25.83
2022-10-02T20:16:28.175Z,30.77
2022-10-02T20:18:57.053Z,28.27
2022-10-02T20:21:36.912Z,21.33
2022-10-02T20:24:08.609Z,23.93
2022-10-02T20:26:40.832Z,22.23
2022-10-02T20:29:15.999Z,24.37
2022-10-02T20:31:51.012Z,21.30
2022-10-02T20:34:25.807Z,27.67
2022-10-02T20:36:59.998Z,22.77
2022-10-02T20:39:33.693Z,24.03
2022-10-02T20:42:06.465Z,26.57
2022-10-02T20:44:36.526Z,28.13
2022-10-02T20:47:41.148Z,31.90
2022-10-02T20:50:32.774Z,20.73
2022-10-02T20:53:37.202Z,17.57
2022-10-02T20:56:11.274Z,20.23
2022-10-02T20:59:08.086Z,20.03
2022-10-02T21:01:43.074Z,24.73
2022-10-02T21:04:39.046Z,20.97
2022-10-02T21:07:35.056Z,19.23
2022-10-02T21:10:42.017Z,20.50
2022-10-02T21:13:43.017Z,22.13
2022-10-02T21:16:31.971Z,19.00
2022-10-02T21:19:24.542Z,19.87
2022-10-02T21:22:28.301Z,20.00
2022-10-02T21:25:35.361Z,25.30
2022-10-02T21:28:50.157Z,17.43
2022-10-02T21:31:48.154Z,24.03
2022-10-02T21:34:31.093Z,26.17
2022-10-02T21:37:04.216Z,18.90
2022-10-02T21:40:21.101Z,20.50
2022-10-02T21:43:28.004Z,17.67
2022-10-02T21:46:28.701Z,27.77
2022-10-02T21:49:29.484Z,18.37
2022-10-02T21:52:42.182Z,15.50
2022-10-02T21:55:47.485Z,24.13
2022-10-02T21:58:51.927Z,22.13
2022-10-02T22:02:08.219Z,19.43
2022-10-02T22:05:06.287Z,14.87
2022-10-02T22:07:39.458Z,25.97
2022-10-02T22:10:15.829Z,21.37
2022-10-02T22:12:56.430Z,21.83
2022-10-02T22:15:32.437Z,22.13
2022-10-02T22:18:07.728Z,23.67
2022-10-02T22:21:00.249Z,19.70
2022-10-02T22:23:39.811Z,16.27
2022-10-02T22:26:35.009Z,19.83
2022-10-02T22:29:11.656Z,19.93
2022-10-02T22:32:22.513Z,17.40
2022-10-02T22:35:00.111Z,24.07
2022-10-02T22:37:54.741Z,27.80
2022-10-02T22:40:27.321Z,19.80
2022-10-02T22:43:00.533Z,20.27
2022-10-02T22:45:34.292Z,15.90
2022-10-02T22:48:05.699Z,22.70
2022-10-02T22:50:40.407Z,24.60
2022-10-02T22:53:14.006Z,19.70
2022-10-02T22:55:49.759Z,21.40
2022-10-02T22:58:22.211Z,17.90
2022-10-02T23:01:01.153Z,20.13
2022-10-02T23:03:38.021Z,21.90
2022-10-02T23:06:19.741Z,21.77
2022-10-02T23:08:52.453Z,22.03
2022-10-02T23:11:24.601Z,20.90
2022-10-02T23:13:58.323Z,21.17
2022-10-02T23:16:35.147Z,25.83
2022-10-02T23:19:13.318Z,17.37
2022-10-02T23:21:48.616Z,16.97
2022-10-02T23:24:24.966Z,23.47
2022-10-02T23:26:56.404Z,24.90
2022-10-02T23:29:36.446Z,19.00
2022-10-02T23:32:14.594Z,18.60
2022-10-02T23:34:50.305Z,22.27
2022-10-02T23:37:26.535Z,20.73
2022-10-02T23:40:04.182Z,23.27
2022-10-02T23:42:38.920Z,22.63
2022-10-02T23:45:12.316Z,19.53
2022-10-02T23:47:56.648Z,19.23
2022-10-02T23:50:31.380Z,27.83
2022-10-02T23:53:32.052Z,26.73
2022-10-02T23:56:16.538Z,22.30
2022-10-02T23:58:56.247Z,18.23
